Aérodrome :
LOGIN :

S'inscrire | Disclaimer

   EN    FR    IT 

 










Légende :    VFR   VFR Marginal   IFR   IFR Intensif   IFR Très Intensif
Visi : 
Plafond : 
>= 8 km
>= 3000ft
5 à 8 km
1000 à 3000 ft
1500m à 5 km
500 à 1000 ft
800 à 1500m
200 à 500 ft
< 800m
< 200 ft
Symboles :   Orages  Brouillard  Fortes neiges  Fortes précipitations  Vent > 20 kt
SIGMETs :   Divers  Orages  Givrage  Turbulence  Onde Orograph.  Cendres Volcan.






- Altitude de l'aérodrome : 388 ft
- Code IATA : QYR


LFQB - Troyes Barberey

DERNIER METAR :
  • 161130Z AUTO 25016KT 9999 SCT042 SCT070 BKN082 22/13 Q1016

METARs EXPIRÉS :
  • 161100Z AUTO 24016KT 9999 FEW043 SCT068 OVC082 23/14 Q1016
  • 161030Z AUTO 24016KT 210V270 9999 FEW040 BKN076 22/13 Q1015
  • 161000Z AUTO 24013KT 9999 FEW037/// BKN072/// ///TCU 21/13 Q1015
  • 160930Z AUTO 23015KT 9999 SCT037 BKN043 BKN072 22/14 Q1015
  • 160900Z AUTO 23017KT 9999 BKN034 BKN041 BKN048 20/14 Q1015
  • 160830Z AUTO 21010KT 180V240 9999 BKN030 BKN036 BKN044 20/15 Q1015
  • 160800Z AUTO 22010KT 190V250 9999 FEW032 SCT045 20/15 Q1015
  • 160730Z AUTO 22011KT 9999 BKN023 BKN032 BKN042 18/15 Q1015
  • 160700Z AUTO 23013KT 9999 BKN021/// BKN026/// BKN035/// ///TCU 18/14 Q1015

TAF N/A



MET'MAP, la Météo Aéronautique d'un coup d'oeil ! - Copyright ORBIFLY Décembre 2007 - Disclaimer

ORBIFLY MET'MAP TEAM :

Programmation & Développement : Alexandra Zaïnal
Sur une idée originale de : Baudouin d'Aumeries
Soutien technique & logistique : Manuel Goepfert
Assistance : Marc-Olivier Méhu




SOURCES & CREDITS :

   NOAA